createdAt,value
2023-09-05T00:02:25.604Z,100.00
2023-09-05T00:05:00.403Z,100.00
2023-09-05T00:07:29.529Z,100.00
2023-09-05T00:09:59.931Z,100.00
2023-09-05T00:12:28.965Z,100.00
2023-09-05T00:14:58.248Z,100.00
2023-09-05T00:17:27.011Z,100.00
2023-09-05T00:19:57.036Z,100.00
2023-09-05T00:22:25.734Z,100.00
2023-09-05T00:24:54.387Z,100.00
2023-09-05T00:27:23.153Z,100.00
2023-09-05T00:29:51.977Z,100.00
2023-09-05T00:32:21.117Z,100.00
2023-09-05T00:34:50.018Z,100.00
2023-09-05T00:37:24.054Z,100.00
2023-09-05T00:39:52.849Z,100.00
2023-09-05T00:42:21.512Z,100.00
2023-09-05T00:44:50.513Z,100.00
2023-09-05T00:47:23.717Z,100.00
2023-09-05T00:49:52.554Z,100.00
2023-09-05T00:52:21.352Z,100.00
2023-09-05T00:54:50.173Z,100.00
2023-09-05T00:57:19.451Z,100.00
2023-09-05T00:59:49.301Z,100.00
2023-09-05T01:02:17.981Z,100.00
2023-09-05T01:04:46.860Z,100.00
2023-09-05T01:07:54.263Z,100.00
2023-09-05T01:10:39.434Z,100.00
2023-09-05T01:13:08.455Z,100.00
2023-09-05T01:15:37.191Z,100.00
2023-09-05T01:18:06.247Z,100.00
2023-09-05T01:20:46.938Z,100.00
2023-09-05T01:23:22.235Z,100.00
2023-09-05T01:25:52.360Z,100.00
2023-09-05T01:28:24.572Z,100.00
2023-09-05T01:30:53.392Z,100.00
2023-09-05T01:33:22.195Z,100.00
2023-09-05T01:35:50.894Z,100.00
2023-09-05T01:38:19.722Z,100.00
2023-09-05T01:40:48.404Z,100.00
2023-09-05T01:43:17.769Z,100.00
2023-09-05T01:45:46.448Z,100.00
2023-09-05T01:48:15.194Z,100.00
2023-09-05T01:50:43.987Z,100.00
2023-09-05T01:53:12.713Z,100.00
2023-09-05T01:55:41.482Z,100.00
2023-09-05T01:58:11.502Z,100.00
2023-09-05T02:00:40.270Z,100.00
2023-09-05T02:03:08.959Z,100.00
2023-09-05T02:05:37.888Z,100.00
2023-09-05T02:08:06.945Z,100.00
2023-09-05T02:10:35.697Z,100.00
2023-09-05T02:13:04.729Z,100.00
2023-09-05T02:15:33.427Z,100.00
2023-09-05T02:18:03.673Z,100.00
2023-09-05T02:20:33.103Z,100.00
2023-09-05T02:23:01.732Z,100.00
2023-09-05T02:25:30.488Z,100.00
2023-09-05T02:27:59.436Z,100.00
2023-09-05T02:30:28.451Z,100.00
2023-09-05T02:32:58.328Z,100.00
2023-09-05T02:35:28.540Z,100.00
2023-09-05T02:37:57.341Z,100.00
2023-09-05T02:40:25.981Z,100.00
2023-09-05T02:42:54.917Z,100.00
2023-09-05T02:45:23.720Z,100.00
2023-09-05T02:47:52.610Z,100.00
2023-09-05T02:50:21.497Z,100.00
2023-09-05T02:52:50.407Z,100.00
2023-09-05T02:55:19.376Z,100.00
2023-09-05T02:57:48.286Z,100.00
2023-09-05T03:00:21.040Z,100.00
2023-09-05T03:02:51.425Z,100.00
2023-09-05T03:05:20.368Z,100.00
2023-09-05T03:07:49.565Z,100.00
2023-09-05T03:10:19.386Z,100.00
2023-09-05T03:12:48.521Z,100.00
2023-09-05T03:15:19.946Z,100.00
2023-09-05T03:17:48.901Z,100.00
2023-09-05T03:20:19.873Z,100.00
2023-09-05T03:22:48.647Z,100.00
2023-09-05T03:25:17.619Z,100.00
2023-09-05T03:27:46.435Z,100.00
2023-09-05T03:30:15.330Z,100.00
2023-09-05T03:32:44.540Z,100.00
2023-09-05T03:35:13.524Z,100.00
2023-09-05T03:37:42.417Z,100.00
2023-09-05T03:40:12.167Z,100.00
2023-09-05T03:42:42.043Z,100.00
2023-09-05T03:45:11.508Z,100.00
2023-09-05T03:47:54.326Z,100.00
2023-09-05T03:50:29.005Z,100.00
2023-09-05T03:52:57.978Z,100.00
2023-09-05T03:55:27.213Z,100.00
2023-09-05T03:57:55.966Z,100.00
2023-09-05T04:00:24.650Z,100.00
2023-09-05T04:02:53.537Z,100.00
2023-09-05T04:05:23.974Z,100.00
2023-09-05T04:07:52.681Z,100.00
2023-09-05T04:10:21.499Z,100.00
2023-09-05T04:12:52.328Z,100.00
2023-09-05T04:15:24.729Z,100.00
2023-09-05T04:17:53.778Z,100.00
2023-09-05T04:20:22.845Z,100.00
2023-09-05T04:22:51.654Z,100.00
2023-09-05T04:25:20.836Z,100.00
2023-09-05T04:27:52.406Z,100.00
2023-09-05T04:30:21.671Z,100.00
2023-09-05T04:32:51.855Z,100.00
2023-09-05T04:35:21.026Z,100.00
2023-09-05T04:37:54.193Z,100.00
2023-09-05T04:40:23.725Z,100.00
2023-09-05T04:42:52.604Z,100.00
2023-09-05T04:45:21.620Z,100.00
2023-09-05T04:47:50.730Z,100.00
2023-09-05T04:50:20.003Z,100.00
2023-09-05T04:52:48.926Z,100.00
2023-09-05T04:55:18.098Z,100.00
2023-09-05T04:57:48.733Z,100.00
2023-09-05T05:00:19.883Z,100.00
2023-09-05T05:02:48.725Z,100.00
2023-09-05T05:05:17.605Z,100.00
2023-09-05T05:07:46.985Z,100.00
2023-09-05T05:10:15.711Z,100.00
2023-09-05T05:12:44.551Z,100.00
2023-09-05T05:15:13.335Z,100.00
2023-09-05T05:17:42.149Z,100.00
2023-09-05T05:20:11.718Z,100.00
2023-09-05T05:22:40.467Z,100.00
2023-09-05T05:25:15.100Z,100.00
2023-09-05T05:27:43.966Z,100.00
2023-09-05T05:30:13.761Z,100.00
2023-09-05T05:32:42.555Z,100.00
2023-09-05T05:35:11.380Z,100.00
2023-09-05T05:37:40.085Z,100.00
2023-09-05T05:40:12.880Z,100.00
2023-09-05T05:42:41.678Z,100.00
2023-09-05T05:45:11.698Z,100.00
2023-09-05T05:47:40.460Z,100.00
2023-09-05T05:50:11.025Z,100.00
2023-09-05T05:52:40.615Z,100.00
2023-09-05T05:55:11.010Z,100.00
2023-09-05T05:57:39.733Z,100.00
2023-09-05T06:00:09.283Z,100.00
2023-09-05T06:02:43.862Z,100.00
2023-09-05T06:05:12.892Z,100.00
2023-09-05T06:07:42.085Z,100.00
2023-09-05T06:10:11.063Z,100.00
2023-09-05T06:12:39.854Z,100.00
2023-09-05T06:15:10.233Z,100.00
2023-09-05T06:17:39.074Z,100.00
2023-09-05T06:20:10.912Z,100.00
2023-09-05T06:22:40.688Z,100.00
2023-09-05T06:25:09.747Z,100.00
2023-09-05T06:27:40.068Z,100.00
2023-09-05T06:30:10.221Z,100.00
2023-09-05T06:32:39.065Z,100.00
2023-09-05T06:35:08.438Z,100.00
2023-09-05T06:37:40.308Z,100.00
2023-09-05T06:40:14.291Z,100.00
2023-09-05T06:42:43.649Z,100.00
2023-09-05T06:45:13.106Z,100.00
2023-09-05T06:47:41.915Z,100.00
2023-09-05T06:50:12.380Z,100.00
2023-09-05T06:52:41.109Z,100.00
2023-09-05T06:55:10.700Z,100.00
2023-09-05T06:57:39.539Z,100.00
2023-09-05T07:00:09.672Z,100.00
2023-09-05T07:02:38.428Z,100.00
2023-09-05T07:05:08.179Z,100.00
2023-09-05T07:07:37.426Z,100.00
2023-09-05T07:10:06.990Z,100.00
2023-09-05T07:12:36.083Z,100.00
2023-09-05T07:15:05.722Z,100.00
2023-09-05T07:17:34.580Z,100.00
2023-09-05T07:20:03.742Z,100.00
2023-09-05T07:22:32.490Z,100.00
2023-09-05T07:25:01.365Z,100.00
2023-09-05T07:27:30.352Z,100.00
2023-09-05T07:29:59.153Z,100.00
2023-09-05T07:32:27.948Z,100.00
2023-09-05T07:34:56.768Z,100.00
2023-09-05T07:37:25.447Z,100.00
2023-09-05T07:39:54.415Z,100.00
2023-09-05T07:42:23.125Z,100.00
2023-09-05T07:44:52.808Z,100.00
2023-09-05T07:47:21.619Z,100.00
2023-09-05T07:49:50.501Z,100.00
2023-09-05T07:52:19.241Z,100.00
2023-09-05T07:54:48.242Z,100.00
2023-09-05T07:57:18.558Z,100.00
2023-09-05T07:59:47.566Z,100.00
2023-09-05T08:02:16.236Z,100.00
2023-09-05T08:04:50.078Z,100.00
2023-09-05T08:07:18.844Z,100.00
2023-09-05T08:09:48.609Z,100.00
2023-09-05T08:12:19.230Z,100.00
2023-09-05T08:14:48.157Z,100.00
2023-09-05T08:17:16.891Z,100.00
2023-09-05T08:19:46.862Z,100.00
2023-09-05T08:22:16.011Z,100.00
2023-09-05T08:24:44.950Z,100.00
2023-09-05T08:27:15.051Z,100.00
2023-09-05T08:29:43.905Z,100.00
2023-09-05T08:32:13.342Z,100.00
2023-09-05T08:34:42.246Z,100.00
2023-09-05T08:37:10.955Z,100.00
2023-09-05T08:39:40.363Z,100.00
2023-09-05T08:42:10.615Z,100.00
2023-09-05T08:44:44.487Z,100.00
2023-09-05T08:47:13.306Z,100.00
2023-09-05T08:49:42.037Z,100.00
2023-09-05T08:52:13.436Z,100.00
2023-09-05T08:54:43.703Z,100.00
2023-09-05T08:57:15.224Z,99.84
2023-09-05T08:59:44.348Z,99.18
2023-09-05T09:02:19.056Z,96.81
2023-09-05T09:04:57.257Z,94.04
2023-09-05T09:07:28.820Z,93.11
2023-09-05T09:09:59.547Z,92.45
2023-09-05T09:12:33.198Z,92.06
2023-09-05T09:15:15.530Z,90.01
2023-09-05T09:17:51.195Z,88.51
2023-09-05T09:20:21.298Z,87.07
2023-09-05T09:22:54.113Z,86.70
2023-09-05T09:25:24.068Z,86.03
2023-09-05T09:27:59.160Z,84.80
2023-09-05T09:30:31.545Z,85.11
2023-09-05T09:33:03.694Z,82.29
2023-09-05T09:35:35.514Z,81.39
2023-09-05T09:38:06.729Z,82.44
2023-09-05T09:40:38.195Z,80.83
2023-09-05T09:43:09.451Z,80.64
2023-09-05T09:45:38.636Z,79.81
2023-09-05T09:48:10.768Z,79.73
2023-09-05T09:50:40.574Z,79.66
2023-09-05T09:53:13.121Z,78.40
2023-09-05T09:55:45.007Z,78.11
2023-09-05T09:58:19.791Z,75.69
2023-09-05T10:00:51.408Z,76.71
2023-09-05T10:03:22.104Z,79.12
2023-09-05T10:05:51.230Z,77.79
2023-09-05T10:08:22.585Z,77.30
2023-09-05T10:10:52.637Z,77.09
2023-09-05T10:13:25.930Z,74.10
2023-09-05T10:15:58.381Z,73.82
2023-09-05T10:18:28.328Z,74.86
2023-09-05T10:20:59.565Z,75.15
2023-09-05T10:23:34.558Z,74.72
2023-09-05T10:26:04.813Z,72.43
2023-09-05T10:28:35.236Z,72.19
2023-09-05T10:31:17.471Z,72.01
2023-09-05T10:33:47.549Z,70.91
2023-09-05T10:36:43.000Z,68.28
2023-09-05T10:39:20.348Z,66.45
2023-09-05T10:41:49.237Z,65.43
2023-09-05T10:44:18.173Z,63.85
2023-09-05T10:46:57.040Z,62.48
2023-09-05T10:49:25.865Z,61.44
2023-09-05T10:52:16.455Z,62.41
2023-09-05T10:54:45.273Z,59.72
2023-09-05T10:57:40.921Z,61.68
2023-09-05T11:00:22.460Z,62.62
2023-09-05T11:02:51.849Z,61.71
2023-09-05T11:05:22.075Z,61.56
2023-09-05T11:07:56.017Z,61.04
2023-09-05T11:10:34.918Z,63.73
2023-09-05T11:13:13.332Z,64.49
2023-09-05T11:15:46.216Z,63.39
2023-09-05T11:18:17.034Z,61.61
2023-09-05T11:20:47.943Z,60.02
2023-09-05T11:23:23.332Z,58.18
2023-09-05T11:25:58.139Z,57.44
2023-09-05T11:28:27.043Z,56.50
2023-09-05T11:30:58.825Z,55.54
2023-09-05T11:33:29.656Z,55.57
2023-09-05T11:35:59.754Z,54.83
2023-09-05T11:38:30.436Z,54.05
2023-09-05T11:41:00.854Z,55.94
2023-09-05T11:43:35.085Z,57.32
2023-09-05T11:46:04.903Z,56.93
2023-09-05T11:48:33.845Z,53.00
2023-09-05T11:51:02.870Z,52.76
2023-09-05T11:53:31.995Z,52.85
2023-09-05T11:56:01.563Z,51.94
2023-09-05T11:58:32.313Z,54.16
2023-09-05T12:01:01.280Z,55.00
2023-09-05T12:03:32.023Z,55.55
2023-09-05T12:06:00.991Z,54.84
2023-09-05T12:08:36.977Z,52.23
2023-09-05T12:11:07.922Z,51.28
2023-09-05T12:13:47.477Z,51.27
2023-09-05T12:16:20.921Z,51.16
2023-09-05T12:18:58.212Z,50.24
2023-09-05T12:21:32.967Z,48.61
2023-09-05T12:24:21.809Z,48.68
2023-09-05T12:27:01.148Z,48.59
2023-09-05T12:29:41.788Z,48.75
2023-09-05T12:32:10.559Z,47.92
2023-09-05T12:34:39.332Z,46.92
2023-09-05T12:37:08.107Z,47.68
2023-09-05T12:39:36.846Z,47.90
2023-09-05T12:42:05.764Z,48.01
2023-09-05T12:44:34.505Z,46.75
2023-09-05T12:47:03.306Z,47.03
2023-09-05T12:49:34.876Z,47.96
2023-09-05T12:52:05.203Z,48.49
2023-09-05T12:54:33.982Z,48.16
2023-09-05T12:57:06.210Z,47.34
2023-09-05T12:59:35.102Z,48.74
2023-09-05T13:02:04.077Z,47.72
2023-09-05T13:04:32.919Z,47.08
2023-09-05T13:07:01.637Z,45.53
2023-09-05T13:09:30.782Z,44.84
2023-09-05T13:11:59.974Z,44.46
2023-09-05T13:14:28.676Z,44.19
2023-09-05T13:16:57.410Z,44.96
2023-09-05T13:19:26.262Z,45.99
2023-09-05T13:21:54.996Z,47.24
2023-09-05T13:24:24.777Z,47.50
2023-09-05T13:26:55.709Z,46.84
2023-09-05T13:29:24.470Z,45.49
2023-09-05T13:31:53.286Z,43.68
2023-09-05T13:34:22.244Z,43.90
2023-09-05T13:36:51.140Z,41.75
2023-09-05T13:39:20.091Z,41.54
2023-09-05T13:41:49.729Z,39.70
2023-09-05T13:44:19.347Z,40.01
2023-09-05T13:46:49.075Z,39.22
2023-09-05T13:49:19.489Z,38.79
2023-09-05T13:51:48.897Z,38.57
2023-09-05T13:54:21.508Z,38.72
2023-09-05T13:56:50.278Z,39.48
2023-09-05T13:59:19.716Z,38.28
2023-09-05T14:01:48.743Z,38.70
2023-09-05T14:04:17.480Z,38.24
2023-09-05T14:06:47.992Z,38.98
2023-09-05T14:09:17.579Z,39.10
2023-09-05T14:11:47.917Z,37.88
2023-09-05T14:14:17.370Z,37.40
2023-09-05T14:16:46.360Z,38.65
2023-09-05T14:19:15.288Z,38.89
2023-09-05T14:21:44.178Z,38.55
2023-09-05T14:24:17.347Z,38.16
2023-09-05T14:26:50.677Z,38.46
2023-09-05T14:29:19.346Z,39.51
2023-09-05T14:31:51.501Z,40.77
2023-09-05T14:34:20.452Z,41.18
2023-09-05T14:36:49.464Z,40.22
2023-09-05T14:39:21.496Z,39.31
2023-09-05T14:41:50.898Z,38.45
2023-09-05T14:44:21.165Z,38.13
2023-09-05T14:46:49.946Z,37.97
2023-09-05T14:49:18.737Z,38.31
2023-09-05T14:51:47.440Z,39.58
2023-09-05T14:54:16.315Z,40.05
2023-09-05T14:56:45.067Z,39.64
2023-09-05T14:59:13.815Z,38.26
2023-09-05T15:01:44.637Z,38.64
2023-09-05T15:04:14.269Z,38.37
2023-09-05T15:06:43.245Z,38.29
2023-09-05T15:09:13.934Z,39.05
2023-09-05T15:11:42.705Z,38.34
2023-09-05T15:14:14.497Z,36.97
2023-09-05T15:16:46.493Z,36.85
2023-09-05T15:19:15.643Z,38.11
2023-09-05T15:21:45.102Z,37.73
2023-09-05T15:24:14.112Z,38.08
2023-09-05T15:26:43.959Z,38.76
2023-09-05T15:29:15.827Z,38.53
2023-09-05T15:31:46.616Z,38.20
2023-09-05T15:34:18.676Z,38.21
2023-09-05T15:36:47.990Z,38.44
2023-09-05T15:39:16.816Z,39.05
2023-09-05T15:41:45.682Z,39.48
2023-09-05T15:44:14.788Z,39.41
2023-09-05T15:46:44.226Z,40.18
2023-09-05T15:49:13.674Z,39.93
2023-09-05T15:51:42.808Z,40.00
2023-09-05T15:54:13.558Z,40.24
2023-09-05T15:56:42.648Z,40.46
2023-09-05T15:59:11.619Z,40.30
2023-09-05T16:01:43.674Z,40.68
2023-09-05T16:04:12.797Z,41.20
2023-09-05T16:06:41.916Z,41.73
2023-09-05T16:09:10.926Z,43.63
2023-09-05T16:11:41.190Z,45.02
2023-09-05T16:14:09.988Z,46.39
2023-09-05T16:16:38.978Z,49.72
2023-09-05T16:19:08.265Z,51.43
2023-09-05T16:21:38.748Z,51.93
2023-09-05T16:24:08.248Z,52.60
2023-09-05T16:26:38.845Z,55.45
2023-09-05T16:29:08.062Z,56.45
2023-09-05T16:31:37.075Z,57.69
2023-09-05T16:34:10.129Z,59.43
2023-09-05T16:36:39.766Z,60.52
2023-09-05T16:39:12.152Z,61.66
2023-09-05T16:41:41.212Z,62.26
2023-09-05T16:44:10.200Z,62.09
2023-09-05T16:46:39.270Z,63.56
2023-09-05T16:49:08.252Z,64.49
2023-09-05T16:51:37.336Z,65.18
2023-09-05T16:54:06.377Z,64.89
2023-09-05T16:56:35.187Z,65.29
2023-09-05T16:59:04.283Z,65.88
2023-09-05T17:01:33.091Z,67.26
2023-09-05T17:04:02.323Z,68.62
2023-09-05T17:06:31.914Z,67.99
2023-09-05T17:09:01.191Z,68.89
2023-09-05T17:11:30.052Z,69.34
2023-09-05T17:13:59.047Z,71.26
2023-09-05T17:16:46.797Z,71.59
2023-09-05T17:19:15.675Z,70.81
2023-09-05T17:21:47.247Z,71.71
2023-09-05T17:24:19.037Z,71.87
2023-09-05T17:26:47.978Z,72.17
2023-09-05T17:29:44.465Z,72.49
2023-09-05T17:32:16.379Z,72.09
2023-09-05T17:34:48.043Z,73.49
2023-09-05T17:37:21.747Z,73.39
2023-09-05T17:39:53.067Z,72.84
2023-09-05T17:42:23.966Z,73.85
2023-09-05T17:44:53.837Z,74.30
2023-09-05T17:47:22.763Z,73.88
2023-09-05T17:49:51.723Z,74.17
2023-09-05T17:52:20.837Z,74.04
2023-09-05T17:54:50.287Z,74.91
2023-09-05T17:57:19.289Z,75.94
2023-09-05T17:59:54.562Z,75.45
2023-09-05T18:02:26.506Z,76.23
2023-09-05T18:04:58.366Z,77.73
2023-09-05T18:07:28.103Z,78.02
2023-09-05T18:09:56.890Z,78.08
2023-09-05T18:12:25.907Z,78.13
2023-09-05T18:14:54.988Z,79.79
2023-09-05T18:17:24.089Z,81.31
2023-09-05T18:19:53.204Z,80.86
2023-09-05T18:22:22.193Z,81.30
2023-09-05T18:24:51.509Z,82.68
2023-09-05T18:27:24.377Z,83.54
2023-09-05T18:29:53.955Z,83.24
2023-09-05T18:32:23.540Z,82.92
2023-09-05T18:34:52.464Z,82.48
2023-09-05T18:37:21.354Z,82.88
2023-09-05T18:39:50.985Z,82.57
2023-09-05T18:42:20.019Z,85.21
2023-09-05T18:44:48.954Z,85.64
2023-09-05T18:47:18.076Z,84.73
2023-09-05T18:49:47.037Z,85.10
2023-09-05T18:52:16.562Z,87.08
2023-09-05T18:54:45.359Z,85.94
2023-09-05T18:57:14.496Z,87.40
2023-09-05T18:59:45.780Z,87.60
2023-09-05T19:02:14.640Z,87.47
2023-09-05T19:04:46.145Z,88.63
2023-09-05T19:07:16.360Z,89.11
2023-09-05T19:09:45.973Z,88.26
2023-09-05T19:12:16.329Z,89.82
2023-09-05T19:14:46.111Z,89.89
2023-09-05T19:17:15.016Z,90.83
2023-09-05T19:19:45.320Z,92.32
2023-09-05T19:22:14.313Z,91.51
2023-09-05T19:24:43.219Z,91.69
2023-09-05T19:27:12.235Z,91.62
2023-09-05T19:29:41.178Z,92.60
2023-09-05T19:32:12.022Z,92.27
2023-09-05T19:34:40.948Z,92.68
2023-09-05T19:37:09.905Z,92.73
2023-09-05T19:39:38.840Z,92.75
2023-09-05T19:42:08.009Z,93.04
2023-09-05T19:44:37.112Z,92.98
2023-09-05T19:47:06.714Z,93.36
2023-09-05T19:49:35.605Z,93.13
2023-09-05T19:52:05.018Z,94.20
2023-09-05T19:54:34.121Z,94.89
2023-09-05T19:57:03.049Z,94.84
2023-09-05T19:59:32.408Z,95.65
2023-09-05T20:02:01.388Z,95.90
2023-09-05T20:04:30.588Z,96.67
2023-09-05T20:06:59.836Z,96.41
2023-09-05T20:09:29.246Z,96.74
2023-09-05T20:11:58.087Z,97.28
2023-09-05T20:14:27.210Z,97.32
2023-09-05T20:16:56.224Z,98.12
2023-09-05T20:19:26.110Z,98.20
2023-09-05T20:21:55.981Z,97.53
2023-09-05T20:24:25.002Z,99.31
2023-09-05T20:26:53.888Z,99.07
2023-09-05T20:29:24.864Z,98.67
2023-09-05T20:31:53.846Z,98.53
2023-09-05T20:34:22.972Z,99.00
2023-09-05T20:36:54.111Z,99.16
2023-09-05T20:39:24.403Z,99.72
2023-09-05T20:41:56.588Z,100.00
2023-09-05T20:44:26.450Z,100.00
2023-09-05T20:46:55.478Z,100.00
2023-09-05T20:49:24.711Z,100.00
2023-09-05T20:51:53.803Z,100.00
2023-09-05T20:54:22.726Z,100.00
2023-09-05T20:56:51.743Z,100.00
2023-09-05T20:59:20.756Z,100.00
2023-09-05T21:01:49.676Z,100.00
2023-09-05T21:04:18.621Z,100.00
2023-09-05T21:06:47.746Z,100.00
2023-09-05T21:09:19.801Z,100.00
2023-09-05T21:11:48.790Z,100.00
2023-09-05T21:14:19.313Z,100.00
2023-09-05T21:16:48.146Z,100.00
2023-09-05T21:19:17.838Z,100.00
2023-09-05T21:21:48.316Z,100.00
2023-09-05T21:24:17.266Z,100.00
2023-09-05T21:26:46.230Z,100.00
2023-09-05T21:29:16.445Z,100.00
2023-09-05T21:31:45.392Z,100.00
2023-09-05T21:34:14.442Z,100.00
2023-09-05T21:36:43.465Z,100.00
2023-09-05T21:39:12.326Z,100.00
2023-09-05T21:41:41.321Z,100.00
2023-09-05T21:44:10.360Z,100.00
2023-09-05T21:46:39.253Z,100.00
2023-09-05T21:49:08.331Z,100.00
2023-09-05T21:51:37.431Z,100.00
2023-09-05T21:54:06.911Z,100.00
2023-09-05T21:56:35.741Z,100.00
2023-09-05T21:59:05.544Z,100.00
2023-09-05T22:01:35.260Z,100.00
2023-09-05T22:04:05.162Z,100.00
2023-09-05T22:06:34.237Z,100.00
2023-09-05T22:09:03.473Z,100.00
2023-09-05T22:11:32.521Z,100.00
2023-09-05T22:14:01.345Z,100.00
2023-09-05T22:16:30.335Z,100.00
2023-09-05T22:19:30.050Z,100.00
2023-09-05T22:22:05.831Z,100.00
2023-09-05T22:24:35.424Z,100.00
2023-09-05T22:27:05.231Z,100.00
2023-09-05T22:29:36.552Z,100.00
2023-09-05T22:32:06.274Z,100.00
2023-09-05T22:34:35.153Z,100.00
2023-09-05T22:37:05.062Z,100.00
2023-09-05T22:39:34.016Z,100.00
2023-09-05T22:42:02.966Z,100.00
2023-09-05T22:44:36.385Z,100.00
2023-09-05T22:47:05.862Z,100.00
2023-09-05T22:49:34.661Z,100.00
2023-09-05T22:52:04.039Z,100.00
2023-09-05T22:54:32.882Z,100.00
2023-09-05T22:57:01.936Z,100.00
2023-09-05T22:59:30.818Z,100.00
2023-09-05T23:01:59.743Z,100.00
2023-09-05T23:04:28.745Z,100.00
2023-09-05T23:06:57.874Z,100.00
2023-09-05T23:09:27.733Z,100.00
2023-09-05T23:11:56.591Z,100.00
2023-09-05T23:14:28.603Z,100.00
2023-09-05T23:16:57.655Z,100.00
2023-09-05T23:19:26.909Z,100.00
2023-09-05T23:21:57.814Z,100.00
2023-09-05T23:24:26.763Z,100.00
2023-09-05T23:26:56.022Z,100.00
2023-09-05T23:29:24.999Z,100.00
2023-09-05T23:31:53.830Z,100.00
2023-09-05T23:34:22.778Z,100.00
2023-09-05T23:36:54.384Z,100.00
2023-09-05T23:39:24.705Z,100.00
2023-09-05T23:41:53.548Z,100.00
2023-09-05T23:44:22.439Z,100.00
2023-09-05T23:46:51.426Z,100.00
2023-09-05T23:49:20.549Z,100.00
2023-09-05T23:51:49.561Z,100.00
2023-09-05T23:54:18.533Z,100.00
2023-09-05T23:56:47.726Z,100.00
2023-09-05T23:59:16.911Z,100.00
